Time;durP1;ratioP1;P1;durP2;ratioP2;P2;SDS_P1;SDS_P2;PMS_P1;PMS_P2;Temp;Humidity;BMP_temperature;BMP_pressure;BME280_temperature;BME280_humidity;BME280_pressure;Samples;Min_cycle;Max_cycle;Signal;HPM_P1;HPM_P2
2023/09/13 00:00:17;;;;;;;3.28;2.40;;;24.10;73.80;;;;;;5094394;28;20093;-66
2023/09/13 00:02:43;;;;;;;3.92;2.42;;;24.10;73.80;;;;;;5093904;28;20032;-66
2023/09/13 00:05:09;;;;;;;2.78;1.92;;;24.10;73.80;;;;;;5095322;28;20058;-67
2023/09/13 00:07:37;;;;;;;4.13;2.20;;;24.10;73.80;;;;;;5094205;28;20059;-67
2023/09/13 00:10:03;;;;;;;3.13;2.08;;;24.10;74.10;;;;;;5094161;28;20436;-67
2023/09/13 00:12:28;;;;;;;3.80;2.25;;;24.10;73.80;;;;;;5095002;28;20538;-67
2023/09/13 00:14:54;;;;;;;3.88;2.25;;;24.00;73.80;;;;;;5093579;28;20047;-67
2023/09/13 00:17:21;;;;;;;3.78;2.35;;;24.00;73.80;;;;;;5095182;28;20392;-66
2023/09/13 00:19:46;;;;;;;4.43;2.30;;;24.10;73.80;;;;;;5094450;28;20415;-67
2023/09/13 00:22:12;;;;;;;3.30;2.40;;;24.10;73.80;;;;;;5095047;28;20048;-67
2023/09/13 00:24:38;;;;;;;3.67;1.95;;;24.10;73.80;;;;;;5094984;28;20044;-66
2023/09/13 00:27:04;;;;;;;2.70;1.90;;;24.10;73.80;;;;;;5093181;28;20046;-66
2023/09/13 00:29:32;;;;;;;3.42;2.05;;;24.00;73.80;;;;;;5084944;28;20051;-66
2023/09/13 00:31:58;;;;;;;3.13;2.13;;;24.10;73.90;;;;;;5073440;28;20057;-66
2023/09/13 00:34:24;;;;;;;3.08;1.95;;;24.00;73.80;;;;;;5071798;28;20039;-66
2023/09/13 00:36:49;;;;;;;2.80;1.95;;;24.00;73.80;;;;;;5087989;28;20055;-67
2023/09/13 00:39:15;;;;;;;3.33;2.03;;;24.00;73.80;;;;;;5093696;28;20070;-67
2023/09/13 00:41:40;;;;;;;3.55;2.20;;;24.00;73.80;;;;;;5093470;28;20044;-67
2023/09/13 00:44:06;;;;;;;2.78;2.10;;;24.00;73.80;;;;;;5092690;28;20058;-67
2023/09/13 00:46:32;;;;;;;4.03;1.85;;;24.00;73.80;;;;;;5094674;28;20044;-67
2023/09/13 00:48:58;;;;;;;3.53;2.20;;;24.00;73.80;;;;;;5093653;28;20046;-67
2023/09/13 00:51:23;;;;;;;3.03;2.00;;;24.00;73.80;;;;;;5093391;28;20048;-67
2023/09/13 00:53:49;;;;;;;3.42;2.20;;;24.00;73.80;;;;;;5093196;28;20479;-67
2023/09/13 00:56:15;;;;;;;3.38;2.10;;;24.00;73.80;;;;;;5092679;28;20054;-67
2023/09/13 00:58:41;;;;;;;3.25;1.83;;;24.00;73.80;;;;;;5076001;28;20097;-67
2023/09/13 01:01:07;;;;;;;2.58;2.05;;;24.00;73.80;;;;;;5093119;28;20668;-67
2023/09/13 01:03:32;;;;;;;4.95;1.92;;;24.00;73.80;;;;;;5093582;28;20177;-67
2023/09/13 01:05:58;;;;;;;3.35;2.20;;;24.00;73.80;;;;;;5092774;28;20127;-67
2023/09/13 01:08:24;;;;;;;2.90;1.80;;;24.00;73.80;;;;;;5093005;28;20127;-67
2023/09/13 01:10:50;;;;;;;3.22;1.85;;;24.00;73.80;;;;;;5092747;28;20380;-67
2023/09/13 01:13:15;;;;;;;3.40;2.00;;;24.00;73.80;;;;;;5094298;28;20044;-67
2023/09/13 01:16:09;;;;;;;3.25;2.10;;;24.00;73.80;;;;;;5093596;28;20098;-67
2023/09/13 01:18:49;;;;;;;4.47;2.05;;;24.00;73.80;;;;;;5092932;28;20490;-68
2023/09/13 01:21:41;;;;;;;2.83;1.92;;;24.00;73.80;;;;;;5076648;28;20051;-67
2023/09/13 01:24:32;;;;;;;3.15;2.05;;;24.00;74.40;;;;;;5092407;28;20426;-67
2023/09/13 01:27:09;;;;;;;3.83;2.20;;;24.00;73.80;;;;;;5093633;28;20040;-67
2023/09/13 01:29:35;;;;;;;3.00;1.63;;;23.90;73.80;;;;;;5076039;28;20040;-67
2023/09/13 01:32:00;;;;;;;4.95;2.08;;;24.00;73.90;;;;;;5092862;28;20483;-67
2023/09/13 01:34:26;;;;;;;2.72;1.70;;;24.00;73.90;;;;;;5075655;28;20484;-67
2023/09/13 01:36:51;;;;;;;3.05;2.08;;;23.90;74.10;;;;;;5093162;28;20062;-67
2023/09/13 01:39:17;;;;;;;3.60;1.90;;;23.90;73.80;;;;;;5093229;28;20040;-67
2023/09/13 01:41:50;;;;;;;4.25;1.85;;;24.00;73.90;;;;;;5075215;28;20127;-67
2023/09/13 01:44:16;;;;;;;2.90;1.73;;;23.90;73.80;;;;;;5091694;28;20048;-67
2023/09/13 01:46:42;;;;;;;3.70;1.63;;;23.90;73.80;;;;;;5048314;28;20072;-67
2023/09/13 01:49:08;;;;;;;2.60;1.52;;;23.90;73.90;;;;;;5072038;28;20040;-67
2023/09/13 01:51:34;;;;;;;3.25;2.00;;;23.90;73.80;;;;;;5037788;28;20052;-68
2023/09/13 01:53:59;;;;;;;2.60;2.05;;;23.90;73.80;;;;;;5055249;28;20477;-67
2023/09/13 01:56:25;;;;;;;2.55;1.80;;;23.90;73.90;;;;;;5073364;28;20041;-67
2023/09/13 01:58:51;;;;;;;2.88;1.88;;;23.90;73.80;;;;;;5072379;28;20120;-67
2023/09/13 02:01:17;;;;;;;2.83;2.10;;;23.90;73.90;;;;;;5072861;28;20109;-67
2023/09/13 02:03:43;;;;;;;3.35;1.77;;;23.90;73.90;;;;;;5073006;28;20051;-67
2023/09/13 02:06:09;;;;;;;3.72;2.10;;;23.90;73.90;;;;;;5071664;28;20480;-67
2023/09/13 02:08:35;;;;;;;2.50;1.70;;;23.90;73.90;;;;;;5072639;28;20131;-68
2023/09/13 02:11:00;;;;;;;4.35;2.10;;;23.90;73.90;;;;;;5073036;28;20433;-67
2023/09/13 02:13:26;;;;;;;2.90;2.00;;;23.90;73.90;;;;;;5070728;28;20048;-67
2023/09/13 02:15:52;;;;;;;3.00;1.75;;;23.90;73.90;;;;;;5071035;28;20045;-67
2023/09/13 02:18:17;;;;;;;3.28;1.70;;;23.90;74.50;;;;;;5073081;28;20128;-67
2023/09/13 02:20:43;;;;;;;2.35;1.70;;;23.80;73.80;;;;;;5071099;28;20044;-67
2023/09/13 02:23:09;;;;;;;2.40;1.55;;;23.90;74.50;;;;;;5072875;28;20056;-67
2023/09/13 02:25:38;;;;;;;2.78;1.70;;;23.90;73.90;;;;;;5072831;28;20032;-67
2023/09/13 02:28:04;;;;;;;2.75;1.85;;;23.90;73.90;;;;;;5090020;28;20048;-66
2023/09/13 02:30:31;;;;;;;3.53;1.70;;;23.90;73.90;;;;;;5091820;28;20556;-67
2023/09/13 02:32:56;;;;;;;3.42;1.75;;;23.90;73.90;;;;;;5092528;28;20040;-68
2023/09/13 02:35:22;;;;;;;4.65;2.25;;;23.90;73.90;;;;;;5092335;28;20085;-67
2023/09/13 02:37:48;;;;;;;3.53;1.58;;;23.80;73.80;;;;;;5092064;28;20052;-67
2023/09/13 02:40:13;;;;;;;2.80;1.90;;;23.80;73.80;;;;;;5092909;28;20051;-67
2023/09/13 02:42:39;;;;;;;3.65;1.38;;;23.80;73.80;;;;;;5091488;28;20048;-66
2023/09/13 02:45:05;;;;;;;2.45;1.60;;;23.80;73.80;;;;;;5092883;28;20059;-67
2023/09/13 02:47:31;;;;;;;2.65;1.80;;;23.80;73.80;;;;;;5091818;28;20044;-67
2023/09/13 02:49:56;;;;;;;2.88;1.67;;;23.80;73.80;;;;;;5091149;28;20047;-67
2023/09/13 02:52:29;;;;;;;2.90;1.58;;;23.80;73.80;;;;;;5092699;28;20048;-67
2023/09/13 02:54:55;;;;;;;2.65;1.52;;;23.80;73.80;;;;;;5091790;28;20043;-66
2023/09/13 02:57:21;;;;;;;2.63;1.55;;;23.80;73.80;;;;;;5091247;28;20040;-67
2023/09/13 02:59:47;;;;;;;2.70;1.95;;;23.80;73.80;;;;;;5090731;28;20447;-67
2023/09/13 03:02:12;;;;;;;2.67;1.42;;;23.80;73.80;;;;;;5090381;28;20566;-66
2023/09/13 03:04:38;;;;;;;2.53;1.60;;;23.80;73.80;;;;;;5091033;28;20136;-67
2023/09/13 03:07:04;;;;;;;2.65;1.77;;;23.80;73.80;;;;;;5091357;28;20063;-67
2023/09/13 03:09:29;;;;;;;3.65;1.90;;;23.80;73.80;;;;;;5091672;28;20406;-66
2023/09/13 03:11:55;;;;;;;2.92;1.70;;;23.80;73.80;;;;;;5091923;28;20044;-67
2023/09/13 03:14:21;;;;;;;3.13;1.58;;;23.80;73.80;;;;;;5092577;28;20044;-67
2023/09/13 03:16:46;;;;;;;2.67;1.42;;;23.80;73.80;;;;;;5091330;28;20040;-66
2023/09/13 03:19:12;;;;;;;3.40;1.67;;;23.80;73.80;;;;;;5091424;28;20071;-67
2023/09/13 03:21:37;;;;;;;3.60;1.40;;;23.80;73.80;;;;;;5091947;28;20498;-67
2023/09/13 03:24:04;;;;;;;2.22;1.50;;;23.80;73.80;;;;;;5091835;28;20063;-66
2023/09/13 03:26:31;;;;;;;2.58;1.60;;;23.80;73.80;;;;;;5090936;28;20075;-66
2023/09/13 03:28:56;;;;;;;2.90;1.70;;;23.80;73.80;;;;;;5090647;28;20117;-66
2023/09/13 03:31:24;;;;;;;2.30;1.40;;;23.70;73.70;;;;;;5091443;28;20060;-66
2023/09/13 03:33:50;;;;;;;2.40;1.55;;;23.70;73.70;;;;;;5094499;28;20059;-67
2023/09/13 03:36:16;;;;;;;3.58;1.42;;;23.70;73.70;;;;;;5095819;28;20071;-67
2023/09/13 03:38:42;;;;;;;2.53;1.55;;;23.80;73.70;;;;;;5093558;28;20474;-67
2023/09/13 03:41:08;;;;;;;2.70;1.58;;;23.70;73.70;;;;;;5096127;28;20040;-67
2023/09/13 03:43:34;;;;;;;2.65;1.42;;;23.70;73.70;;;;;;5094022;28;20559;-68
2023/09/13 03:45:59;;;;;;;3.97;1.60;;;23.70;73.70;;;;;;5095090;28;20127;-67
2023/09/13 03:48:25;;;;;;;2.88;1.40;;;23.70;73.70;;;;;;5100164;28;20491;-67
2023/09/13 03:50:51;;;;;;;2.95;1.70;;;23.70;73.70;;;;;;5104567;28;20122;-67
2023/09/13 03:53:16;;;;;;;3.65;1.63;;;23.70;73.70;;;;;;5098998;28;20055;-67
2023/09/13 03:55:42;;;;;;;2.63;1.55;;;23.70;73.70;;;;;;5111460;28;20468;-67
2023/09/13 03:58:08;;;;;;;2.83;1.38;;;23.70;73.70;;;;;;5095453;28;20048;-67
2023/09/13 04:00:37;;;;;;;2.67;1.50;;;23.70;73.70;;;;;;5093867;28;20089;-67
2023/09/13 04:03:03;;;;;;;2.58;1.40;;;23.70;73.70;;;;;;5094465;28;20093;-67
2023/09/13 04:05:29;;;;;;;2.70;1.50;;;23.70;73.70;;;;;;5093041;28;20572;-67
2023/09/13 04:07:55;;;;;;;3.30;1.25;;;23.70;73.70;;;;;;5076438;28;20044;-66
2023/09/13 04:10:21;;;;;;;2.63;1.40;;;23.70;73.70;;;;;;5095732;28;20028;-67
2023/09/13 04:12:46;;;;;;;2.08;1.20;;;23.70;73.60;;;;;;5095271;28;20557;-67
2023/09/13 04:15:12;;;;;;;2.67;1.55;;;23.70;73.60;;;;;;5114702;28;20119;-67
2023/09/13 04:17:37;;;;;;;3.08;1.58;;;23.70;73.60;;;;;;5104067;28;20472;-67
2023/09/13 04:20:05;;;;;;;2.47;1.40;;;23.70;73.60;;;;;;5094754;28;20032;-68
2023/09/13 04:22:30;;;;;;;2.63;1.40;;;23.70;73.60;;;;;;5093854;28;20036;-67
2023/09/13 04:24:56;;;;;;;2.85;1.27;;;23.60;73.60;;;;;;5094933;28;20050;-67
2023/09/13 04:27:22;;;;;;;1.95;1.20;;;23.70;73.60;;;;;;5094159;28;20080;-67
2023/09/13 04:29:48;;;;;;;3.40;1.50;;;23.70;73.70;;;;;;5095221;28;20048;-67
2023/09/13 04:32:13;;;;;;;3.08;1.30;;;23.70;73.60;;;;;;5095037;28;20047;-67
2023/09/13 04:34:39;;;;;;;3.05;1.10;;;23.70;73.60;;;;;;5093952;28;20123;-67
2023/09/13 04:37:05;;;;;;;2.22;1.10;;;23.70;73.70;;;;;;5096371;28;20052;-67
2023/09/13 04:39:34;;;;;;;5.03;1.77;;;23.60;73.60;;;;;;5115261;28;20592;-67
2023/09/13 04:42:00;;;;;;;3.92;1.20;;;23.60;73.60;;;;;;5111398;28;20119;-67
2023/09/13 04:44:26;;;;;;;3.30;1.50;;;23.60;73.60;;;;;;5094543;28;20563;-67
2023/09/13 04:46:56;;;;;;;1.67;0.90;;;23.60;73.60;;;;;;5094465;28;20051;-67
2023/09/13 04:49:21;;;;;;;2.28;1.30;;;23.60;73.60;;;;;;5094274;28;20059;-67
2023/09/13 04:51:47;;;;;;;2.00;1.20;;;23.70;73.60;;;;;;5094167;28;20048;-67
2023/09/13 04:54:12;;;;;;;3.47;1.40;;;23.60;73.50;;;;;;5092607;28;20051;-69
2023/09/13 04:56:38;;;;;;;2.83;1.38;;;23.60;73.50;;;;;;5094399;28;20414;-67
2023/09/13 04:59:04;;;;;;;2.53;1.23;;;23.60;73.60;;;;;;5093911;28;20040;-67
2023/09/13 05:01:30;;;;;;;1.85;1.13;;;23.60;73.50;;;;;;5093814;28;20054;-67
2023/09/13 05:03:56;;;;;;;2.22;1.10;;;23.60;73.60;;;;;;5094095;28;20115;-67
2023/09/13 05:06:22;;;;;;;2.33;1.08;;;23.60;73.50;;;;;;5094526;28;20127;-67
2023/09/13 05:08:49;;;;;;;2.45;1.15;;;23.60;73.50;;;;;;5091928;28;20046;-67
2023/09/13 05:11:15;;;;;;;2.93;1.07;;;23.60;73.50;;;;;;5094458;28;20040;-67
2023/09/13 05:13:40;;;;;;;1.80;0.88;;;23.60;73.50;;;;;;5097053;28;20031;-68
2023/09/13 05:16:06;;;;;;;2.35;1.00;;;23.60;73.50;;;;;;5113889;28;20445;-67
2023/09/13 05:18:32;;;;;;;3.30;1.20;;;23.60;73.50;;;;;;5099361;28;20082;-63
2023/09/13 05:20:58;;;;;;;2.58;1.20;;;23.60;73.40;;;;;;5093715;28;20062;-66
2023/09/13 05:23:23;;;;;;;2.28;1.23;;;23.60;73.50;;;;;;5091894;28;20422;-66
2023/09/13 05:25:49;;;;;;;3.67;1.20;;;23.60;73.50;;;;;;5093338;28;20085;-65
2023/09/13 05:28:17;;;;;;;2.83;1.25;;;23.60;73.50;;;;;;5092904;28;20491;-66
2023/09/13 05:30:46;;;;;;;3.75;1.70;;;23.60;73.40;;;;;;5088337;28;20047;-66
2023/09/13 05:33:12;;;;;;;2.10;1.20;;;23.60;73.50;;;;;;5083431;28;20048;-65
2023/09/13 05:35:37;;;;;;;4.20;1.20;;;23.60;73.50;;;;;;5073290;28;20041;-66
2023/09/13 05:38:03;;;;;;;3.38;1.10;;;23.60;73.40;;;;;;5072357;28;20056;-65
2023/09/13 05:40:30;;;;;;;2.80;1.10;;;23.60;73.40;;;;;;5073017;28;20052;-66
2023/09/13 05:42:56;;;;;;;2.72;1.10;;;23.60;73.40;;;;;;5078666;28;20507;-66
2023/09/13 05:45:23;;;;;;;3.35;1.25;;;23.60;73.40;;;;;;5092532;28;20032;-67
2023/09/13 05:47:49;;;;;;;5.70;1.50;;;23.60;74.10;;;;;;5092928;28;20032;-62
2023/09/13 05:50:15;;;;;;;6.18;1.33;;;23.60;73.60;;;;;;5093280;28;20040;-68
2023/09/13 05:52:41;;;;;;;5.57;1.33;;;23.60;73.60;;;;;;5091056;28;20396;-67
2023/09/13 05:55:07;;;;;;;3.65;1.17;;;23.60;73.70;;;;;;5093057;28;20117;-67
2023/09/13 05:57:33;;;;;;;4.00;1.30;;;23.60;73.70;;;;;;5092104;28;20039;-67
2023/09/13 05:59:58;;;;;;;3.83;1.02;;;23.60;73.70;;;;;;5092964;28;20044;-66
2023/09/13 06:02:24;;;;;;;4.55;1.30;;;23.60;73.70;;;;;;5083315;28;20115;-66
2023/09/13 06:04:50;;;;;;;4.93;1.25;;;23.60;73.80;;;;;;5090704;28;20040;-66
2023/09/13 06:07:15;;;;;;;2.83;1.27;;;23.60;73.80;;;;;;5092840;28;20082;-65
2023/09/13 06:09:41;;;;;;;3.28;1.15;;;23.60;73.90;;;;;;5072754;28;20047;-66
2023/09/13 06:12:07;;;;;;;3.00;1.25;;;23.60;73.90;;;;;;5077019;28;20093;-65
2023/09/13 06:14:32;;;;;;;3.60;1.45;;;23.70;73.90;;;;;;5089977;28;20050;-64
2023/09/13 06:16:58;;;;;;;3.90;1.30;;;23.70;74.00;;;;;;5092256;28;20395;-65
2023/09/13 06:19:24;;;;;;;3.83;1.30;;;23.70;74.00;;;;;;5086022;28;20570;-65
2023/09/13 06:21:49;;;;;;;3.05;0.95;;;23.60;74.00;;;;;;5092349;28;20376;-66
2023/09/13 06:24:15;;;;;;;4.28;1.17;;;23.60;73.90;;;;;;5092865;28;20392;-66
2023/09/13 06:26:40;;;;;;;5.05;1.50;;;23.60;73.90;;;;;;5091721;28;20407;-65
2023/09/13 06:29:06;;;;;;;4.28;1.25;;;23.60;74.00;;;;;;5082592;28;20049;-66
2023/09/13 06:31:32;;;;;;;4.55;1.30;;;23.60;74.00;;;;;;5072626;28;20446;-67
2023/09/13 06:33:58;;;;;;;2.70;0.98;;;23.60;74.00;;;;;;5082371;28;20072;-67
2023/09/13 06:36:24;;;;;;;3.67;1.15;;;23.70;73.90;;;;;;5092448;28;20073;-67
2023/09/13 06:38:50;;;;;;;4.97;1.30;;;23.70;73.80;;;;;;5089092;28;20101;-67
2023/09/13 06:41:16;;;;;;;4.10;1.27;;;23.70;73.80;;;;;;5084498;28;20365;-66
2023/09/13 06:43:43;;;;;;;3.95;1.08;;;23.60;73.70;;;;;;5089683;28;20047;-66
2023/09/13 06:46:09;;;;;;;3.13;1.08;;;23.60;73.70;;;;;;5092497;28;20054;-66
2023/09/13 06:48:35;;;;;;;3.97;1.30;;;23.60;73.60;;;;;;5089793;28;20044;-67
2023/09/13 06:51:01;;;;;;;3.35;0.85;;;23.60;73.70;;;;;;5091793;28;20040;-67
2023/09/13 06:53:26;;;;;;;3.38;1.02;;;23.60;73.60;;;;;;5091191;28;20035;-67
2023/09/13 06:55:52;;;;;;;2.22;0.90;;;23.60;73.60;;;;;;5081437;28;20076;-67
2023/09/13 06:58:18;;;;;;;4.72;1.10;;;23.50;73.60;;;;;;5088203;28;20535;-66
2023/09/13 07:00:43;;;;;;;3.25;1.10;;;23.50;73.60;;;;;;5089381;28;20058;-66
2023/09/13 07:03:09;;;;;;;5.85;1.10;;;23.50;73.60;;;;;;5090871;28;20044;-66
2023/09/13 07:05:35;;;;;;;2.40;1.00;;;23.50;73.50;;;;;;5091667;28;20037;-65
2023/09/13 07:08:00;;;;;;;3.92;1.35;;;23.50;73.60;;;;;;5093775;28;20028;-67
2023/09/13 07:10:27;;;;;;;2.92;1.02;;;23.50;73.50;;;;;;5096368;28;20035;-67
2023/09/13 07:12:52;;;;;;;2.97;0.98;;;23.50;73.60;;;;;;5079242;28;20463;-67
2023/09/13 07:15:18;;;;;;;3.72;1.10;;;23.50;73.50;;;;;;5075487;28;20094;-68
2023/09/13 07:17:44;;;;;;;4.50;1.00;;;23.50;73.40;;;;;;5077342;28;20044;-68
2023/09/13 07:20:10;;;;;;;5.97;1.20;;;23.50;73.30;;;;;;5093904;28;20086;-68
2023/09/13 07:22:36;;;;;;;4.10;1.02;;;23.50;73.30;;;;;;5093268;28;20050;-67
2023/09/13 07:25:04;;;;;;;6.85;1.20;;;23.50;73.40;;;;;;5094986;28;20040;-67
2023/09/13 07:27:30;;;;;;;4.90;1.40;;;23.50;73.40;;;;;;5095744;28;20472;-68
2023/09/13 07:29:56;;;;;;;5.57;1.58;;;23.50;73.40;;;;;;5093809;28;20343;-68
2023/09/13 07:32:21;;;;;;;5.20;1.30;;;23.50;73.40;;;;;;5081444;28;20048;-68
2023/09/13 07:34:47;;;;;;;4.22;1.25;;;23.50;74.10;;;;;;5075127;28;20051;-69
2023/09/13 07:37:12;;;;;;;2.72;1.00;;;23.50;73.50;;;;;;5075082;28;20052;-69
2023/09/13 07:39:39;;;;;;;3.45;1.10;;;23.50;73.50;;;;;;5075696;28;20048;-68
2023/09/13 07:42:05;;;;;;;3.03;1.00;;;23.50;73.60;;;;;;5075896;28;20072;-68
2023/09/13 07:44:31;;;;;;;3.90;1.20;;;23.50;73.50;;;;;;5074437;28;20068;-68
2023/09/13 07:46:56;;;;;;;4.15;1.10;;;23.50;73.50;;;;;;5084070;28;20340;-67
2023/09/13 07:49:25;;;;;;;4.03;1.30;;;23.50;73.60;;;;;;5095965;28;20130;-67
2023/09/13 07:51:51;;;;;;;2.80;1.00;;;23.50;73.60;;;;;;5077653;28;20132;-67
2023/09/13 07:54:17;;;;;;;4.18;1.30;;;23.50;73.50;;;;;;5086819;28;20119;-68
2023/09/13 07:56:43;;;;;;;3.38;1.00;;;23.50;73.50;;;;;;5093911;28;20044;-67
2023/09/13 07:59:13;;;;;;;3.97;0.95;;;23.50;73.60;;;;;;5093575;28;20040;-67
2023/09/13 08:01:39;;;;;;;4.10;1.17;;;23.50;73.50;;;;;;5094802;28;20114;-67
2023/09/13 08:04:05;;;;;;;3.97;1.13;;;23.50;73.50;;;;;;5094890;28;20048;-67
2023/09/13 08:06:30;;;;;;;2.60;1.20;;;23.60;73.60;;;;;;5095070;28;20493;-67
2023/09/13 08:08:57;;;;;;;3.05;0.90;;;23.50;73.50;;;;;;5094308;28;20040;-67
2023/09/13 08:11:23;;;;;;;4.53;0.90;;;23.60;73.60;;;;;;5090823;28;20078;-67
2023/09/13 08:13:48;;;;;;;3.92;1.27;;;23.50;73.60;;;;;;5074576;28;20438;-67
2023/09/13 08:16:14;;;;;;;3.47;1.10;;;23.50;73.50;;;;;;5092234;28;20119;-67
2023/09/13 08:18:40;;;;;;;6.93;1.30;;;23.50;73.40;;;;;;5075464;28;20066;-67
2023/09/13 08:21:05;;;;;;;5.07;1.33;;;23.60;73.50;;;;;;5071052;28;20507;-65
2023/09/13 08:23:31;;;;;;;3.97;1.23;;;23.50;73.50;;;;;;5074663;28;20044;-65
2023/09/13 08:25:57;;;;;;;5.32;1.27;;;23.50;73.30;;;;;;5076728;28;20036;-67
2023/09/13 08:28:23;;;;;;;5.65;0.98;;;23.50;73.30;;;;;;5094830;28;20097;-66
2023/09/13 08:30:49;;;;;;;4.82;1.20;;;23.50;73.30;;;;;;5093146;28;20048;-67
2023/09/13 08:33:16;;;;;;;6.47;1.45;;;23.50;73.20;;;;;;5094002;28;20832;-66
2023/09/13 08:35:42;;;;;;;4.10;0.93;;;23.50;73.20;;;;;;5094980;28;20035;-69
2023/09/13 08:38:08;;;;;;;5.63;1.30;;;23.50;73.10;;;;;;5096348;28;20044;-69
2023/09/13 08:40:38;;;;;;;7.97;1.27;;;23.50;73.10;;;;;;5093659;28;20131;-69
2023/09/13 08:43:04;;;;;;;5.05;1.30;;;23.50;73.10;;;;;;5073369;28;20101;-69
2023/09/13 08:45:29;;;;;;;5.47;1.30;;;23.50;73.10;;;;;;5059671;28;20135;-67
2023/09/13 08:48:01;;;;;;;5.15;1.10;;;23.50;73.10;;;;;;5040540;28;20047;-67
2023/09/13 08:50:28;;;;;;;4.80;1.10;;;23.50;73.10;;;;;;5072546;28;20048;-66
2023/09/13 08:52:54;;;;;;;5.95;1.33;;;23.50;73.10;;;;;;5090378;28;20081;-67
2023/09/13 08:55:20;;;;;;;4.32;1.00;;;23.50;73.10;;;;;;5092310;28;20057;-66
2023/09/13 08:57:47;;;;;;;3.85;0.93;;;23.50;73.10;;;;;;5077747;28;20029;-66
2023/09/13 09:00:14;;;;;;;4.03;1.13;;;23.50;73.10;;;;;;5074120;28;20776;-65
2023/09/13 09:02:39;;;;;;;4.45;0.95;;;23.50;73.00;;;;;;5093892;28;20488;-66
2023/09/13 09:05:05;;;;;;;4.75;1.20;;;23.60;73.10;;;;;;5076589;28;20047;-66
2023/09/13 09:07:31;;;;;;;3.42;0.95;;;23.50;73.00;;;;;;5092188;28;20055;-66
2023/09/13 09:09:58;;;;;;;3.97;1.00;;;23.60;73.00;;;;;;5091818;28;20031;-65
2023/09/13 09:12:24;;;;;;;3.75;0.90;;;23.50;73.00;;;;;;5092158;28;20044;-66
2023/09/13 09:14:49;;;;;;;3.28;1.35;;;23.60;73.00;;;;;;5091772;28;20043;-65
2023/09/13 09:17:16;;;;;;;3.85;1.02;;;23.50;73.00;;;;;;5092595;28;20042;-66
2023/09/13 09:19:42;;;;;;;6.38;1.40;;;23.50;73.00;;;;;;5093070;28;20123;-69
2023/09/13 09:22:08;;;;;;;8.02;1.42;;;23.60;73.00;;;;;;5091745;28;20122;-68
2023/09/13 09:24:33;;;;;;;7.05;1.23;;;23.60;73.00;;;;;;5093635;28;20047;-70
2023/09/13 09:27:00;;;;;;;4.72;1.17;;;23.60;73.00;;;;;;5093161;28;20082;-69
2023/09/13 09:29:39;;;;;;;6.07;1.50;;;23.50;73.00;;;;;;5092984;28;20488;-68
2023/09/13 09:32:07;;;;;;;6.57;1.55;;;23.60;73.10;;;;;;5091423;28;20479;-69
2023/09/13 09:34:33;;;;;;;;;;;23.60;73.10;;;;;;5093119;28;20040;-69
2023/09/13 09:37:04;;;;;;;9.25;1.50;;;23.60;73.10;;;;;;5091561;28;19958;-67
2023/09/13 09:39:29;;;;;;;5.80;1.35;;;23.60;73.10;;;;;;5092416;28;20051;-67
2023/09/13 09:41:59;;;;;;;6.10;1.48;;;23.60;73.10;;;;;;5091213;28;20104;-64
2023/09/13 09:44:27;;;;;;;4.80;1.40;;;23.70;73.30;;;;;;5091442;28;20044;-64
2023/09/13 09:46:53;;;;;;;7.18;2.00;;;23.70;72.90;;;;;;5092007;28;20071;-65
2023/09/13 09:49:18;;;;;;;6.95;1.80;;;23.70;71.20;;;;;;5092005;28;20395;-64
2023/09/13 09:51:44;;;;;;;7.88;1.73;;;23.60;69.80;;;;;;5073579;28;20048;-64
2023/09/13 09:54:09;;;;;;;8.68;2.00;;;23.50;69.10;;;;;;5091845;28;20048;-64
2023/09/13 09:56:35;;;;;;;6.70;1.95;;;23.50;68.60;;;;;;5071300;28;20033;-65
2023/09/13 09:59:01;;;;;;;6.88;1.70;;;23.50;68.00;;;;;;5072838;28;20522;-64
2023/09/13 10:01:27;;;;;;;7.32;1.73;;;23.50;67.60;;;;;;5055045;28;20051;-64
2023/09/13 10:03:56;;;;;;;6.63;1.63;;;23.40;67.20;;;;;;5070674;28;20063;-64
2023/09/13 10:06:22;;;;;;;6.50;1.80;;;23.40;67.00;;;;;;5073004;28;20119;-64
2023/09/13 10:08:49;;;;;;;6.35;1.70;;;23.40;66.90;;;;;;5072161;28;20131;-64
2023/09/13 10:11:19;;;;;;;5.53;1.63;;;23.40;66.60;;;;;;5072024;28;20036;-64
2023/09/13 10:13:45;;;;;;;7.20;1.60;;;23.30;66.30;;;;;;5072275;28;20397;-64
2023/09/13 10:16:11;;;;;;;5.72;1.92;;;23.30;66.30;;;;;;5072653;28;20559;-64
2023/09/13 10:18:40;;;;;;;7.60;2.28;;;23.30;66.00;;;;;;5072043;28;20048;-64
2023/09/13 10:21:06;;;;;;;6.68;1.35;;;23.30;66.10;;;;;;5071004;28;20426;-65
2023/09/13 10:24:06;;;;;;;5.13;1.40;;;23.30;66.00;;;;;;5089008;28;20050;-65
2023/09/13 10:26:31;;;;;;;6.63;1.60;;;23.20;65.30;;;;;;5088202;28;20055;-64
2023/09/13 10:29:17;;;;;;;6.85;2.03;;;23.20;66.00;;;;;;5092407;28;20052;-65
2023/09/13 10:31:47;;;;;;;4.45;1.40;;;23.30;66.10;;;;;;5072827;28;20044;-64
2023/09/13 10:34:22;;;;;;;5.47;1.27;;;23.30;65.80;;;;;;5074360;28;20468;-64
2023/09/13 10:36:48;;;;;;;6.10;1.58;;;23.30;65.70;;;;;;5092532;28;20078;-64
2023/09/13 10:39:34;;;;;;;11.85;3.20;;;23.30;65.60;;;;;;5052587;28;20106;-64
2023/09/13 10:42:04;;;;;;;11.77;3.03;;;23.30;65.70;;;;;;5070847;28;20101;-64
2023/09/13 10:44:30;;;;;;;8.73;3.00;;;23.30;65.80;;;;;;5070534;28;20048;-64
2023/09/13 10:46:55;;;;;;;9.25;2.58;;;23.30;66.00;;;;;;5071724;28;20495;-64
2023/09/13 10:49:21;;;;;;;4.78;1.92;;;23.30;65.90;;;;;;5054466;28;20045;-64
2023/09/13 10:51:47;;;;;;;7.93;1.95;;;23.30;65.80;;;;;;5053115;28;20110;-64
2023/09/13 10:54:13;;;;;;;6.53;1.60;;;23.40;65.40;;;;;;5070466;28;20052;-64
2023/09/13 10:56:39;;;;;;;8.05;2.28;;;23.40;65.20;;;;;;5087661;28;20044;-64
2023/09/13 10:59:05;;;;;;;7.25;1.90;;;23.40;65.20;;;;;;5091090;28;20032;-64
2023/09/13 11:01:30;;;;;;;9.05;1.88;;;23.40;65.20;;;;;;5086835;28;20054;-65
2023/09/13 11:03:56;;;;;;;6.50;1.55;;;23.40;65.00;;;;;;5089794;28;20036;-65
2023/09/13 11:06:22;;;;;;;9.75;1.88;;;23.40;65.10;;;;;;5087720;28;20094;-66
2023/09/13 11:08:50;;;;;;;7.80;2.03;;;23.30;64.90;;;;;;5081985;28;20466;-66
2023/09/13 11:11:18;;;;;;;6.43;1.58;;;23.30;64.80;;;;;;5066002;28;20578;-66
2023/09/13 11:13:47;;;;;;;8.50;1.70;;;23.30;65.00;;;;;;5086305;28;20105;-66
2023/09/13 11:16:13;;;;;;;7.57;1.85;;;23.30;65.20;;;;;;5088168;28;20044;-66
2023/09/13 11:18:52;;;;;;;5.78;1.67;;;23.30;65.20;;;;;;5084707;28;20373;-66
2023/09/13 11:21:28;;;;;;;4.70;1.50;;;23.40;65.40;;;;;;5088780;28;20483;-66
2023/09/13 11:23:54;;;;;;;4.68;1.50;;;23.40;65.50;;;;;;5086747;28;20521;-66
2023/09/13 11:26:43;;;;;;;6.43;1.70;;;23.40;65.60;;;;;;5081927;28;20032;-66
2023/09/13 11:29:23;;;;;;;6.85;1.77;;;23.40;65.80;;;;;;5088149;28;20445;-66
2023/09/13 11:31:58;;;;;;;5.53;1.40;;;23.40;65.90;;;;;;5091780;28;20506;-67
2023/09/13 11:34:24;;;;;;;5.50;2.17;;;23.40;65.90;;;;;;5089692;28;20047;-66
2023/09/13 11:37:00;;;;;;;7.30;1.90;;;23.40;66.00;;;;;;5090761;28;20377;-67
2023/09/13 11:39:29;;;;;;;6.65;1.45;;;23.40;66.00;;;;;;5090472;28;20059;-67
2023/09/13 11:41:57;;;;;;;6.85;1.77;;;23.40;66.10;;;;;;5083990;28;20040;-67
2023/09/13 11:44:23;;;;;;;6.70;1.95;;;23.50;66.20;;;;;;5091547;28;20047;-66
2023/09/13 11:46:52;;;;;;;8.02;1.65;;;23.40;66.10;;;;;;5091292;28;20040;-66
2023/09/13 11:49:19;;;;;;;4.80;1.67;;;23.40;66.10;;;;;;5081291;28;20071;-67
2023/09/13 11:51:48;;;;;;;5.22;1.45;;;23.40;66.20;;;;;;5091661;28;20048;-67
2023/09/13 11:54:18;;;;;;;5.05;1.60;;;23.40;66.20;;;;;;5083448;28;20090;-67
2023/09/13 11:56:45;;;;;;;6.75;1.73;;;23.40;66.30;;;;;;5094432;28;20043;-67
2023/09/13 11:59:11;;;;;;;6.28;1.48;;;23.40;66.40;;;;;;5085462;28;20072;-67
2023/09/13 12:01:42;;;;;;;6.28;1.60;;;23.40;66.40;;;;;;5067669;28;20032;-67
2023/09/13 12:04:09;;;;;;;6.72;1.48;;;23.40;66.50;;;;;;5092034;28;20036;-68
2023/09/13 12:06:47;;;;;;;6.15;1.58;;;23.50;66.50;;;;;;5085401;28;20067;-67
2023/09/13 12:09:14;;;;;;;5.32;1.60;;;23.50;66.70;;;;;;5070075;28;20411;-66
2023/09/13 12:11:40;;;;;;;7.13;1.52;;;23.50;66.70;;;;;;5084527;28;20086;-67
2023/09/13 12:14:08;;;;;;;4.47;1.35;;;23.50;66.80;;;;;;5092063;28;20063;-67
2023/09/13 12:16:38;;;;;;;4.45;1.52;;;23.50;66.80;;;;;;5094736;28;20051;-67
2023/09/13 12:19:05;;;;;;;6.35;1.75;;;23.50;66.90;;;;;;5094422;28;20036;-66
2023/09/13 12:21:31;;;;;;;5.25;1.42;;;23.50;67.00;;;;;;5094923;28;20479;-67
2023/09/13 12:23:56;;;;;;;5.32;1.45;;;23.50;67.10;;;;;;5084955;28;20090;-67
2023/09/13 12:26:23;;;;;;;5.80;1.60;;;23.50;67.10;;;;;;5083394;28;20032;-67
2023/09/13 12:28:49;;;;;;;5.87;1.53;;;23.50;67.10;;;;;;5076557;28;20545;-67
2023/09/13 12:31:15;;;;;;;6.20;2.25;;;23.50;67.10;;;;;;5094004;28;20036;-68
2023/09/13 12:33:45;;;;;;;6.18;1.90;;;23.50;67.20;;;;;;5084833;28;20048;-68
2023/09/13 12:36:11;;;;;;;5.22;1.40;;;23.50;67.20;;;;;;5094601;28;20553;-68
2023/09/13 12:38:44;;;;;;;7.72;1.48;;;23.50;67.20;;;;;;5083542;28;20048;-68
2023/09/13 12:41:10;;;;;;;4.00;1.40;;;23.50;67.40;;;;;;5084557;28;20054;-68
2023/09/13 12:43:36;;;;;;;5.45;1.73;;;23.50;67.40;;;;;;5094006;28;20047;-68
2023/09/13 12:46:02;;;;;;;6.38;1.55;;;23.50;67.50;;;;;;5082939;28;20052;-68